createdAt,value
2017-04-25T00:02:57.938Z,99.02
2017-04-25T00:07:53.921Z,96.89
2017-04-25T00:12:49.305Z,95.75
2017-04-25T00:22:45.562Z,96.55
2017-04-25T00:27:41.354Z,96.93
2017-04-25T00:32:37.573Z,97.31
2017-04-25T00:37:35.573Z,96.08
2017-04-25T00:42:36.641Z,95.70
2017-04-25T00:47:34.566Z,96.74
2017-04-25T00:57:31.996Z,96.08
2017-04-25T01:02:27.650Z,97.03
2017-04-25T01:07:28.358Z,96.08
2017-04-25T01:12:23.521Z,96.98
2017-04-25T01:17:24.522Z,97.41
2017-04-25T01:22:19.884Z,97.50
2017-04-25T01:27:15.090Z,96.55
2017-04-25T01:32:10.709Z,97.31
2017-04-25T01:37:06.350Z,97.41
2017-04-25T01:42:02.616Z,97.31
2017-04-25T01:46:58.345Z,97.12
2017-04-25T01:51:54.143Z,97.31
2017-04-25T01:56:49.680Z,97.31
2017-04-25T02:01:45.653Z,97.45
2017-04-25T02:06:40.745Z,97.36
2017-04-25T02:11:36.988Z,97.83
2017-04-25T02:16:32.745Z,97.92
2017-04-25T02:21:28.305Z,97.12
2017-04-25T02:26:23.960Z,98.31
2017-04-25T02:31:19.679Z,98.50
2017-04-25T02:36:15.268Z,99.16
2017-04-25T02:41:10.571Z,99.99
2017-04-25T02:46:06.887Z,99.99
2017-04-25T02:51:02.609Z,99.99
2017-04-25T02:55:58.148Z,99.99
2017-04-25T03:00:53.547Z,99.26
2017-04-25T03:05:49.489Z,99.99
2017-04-25T03:10:45.297Z,99.92
2017-04-25T03:15:40.796Z,99.92
2017-04-25T03:20:36.389Z,99.99
2017-04-25T03:25:32.122Z,99.99
2017-04-25T03:30:27.935Z,99.92
2017-04-25T03:35:23.970Z,99.99
2017-04-25T03:40:19.355Z,99.99
2017-04-25T03:45:18.545Z,99.99
2017-04-25T03:50:13.736Z,99.99
2017-04-25T03:55:09.377Z,99.99
2017-04-25T04:00:05.235Z,99.99
2017-04-25T04:05:01.081Z,99.99
2017-04-25T04:09:59.195Z,99.99
2017-04-25T04:14:54.691Z,99.99
2017-04-25T04:19:53.160Z,99.99
2017-04-25T04:29:50.915Z,99.99
2017-04-25T04:34:48.295Z,99.99
2017-04-25T04:39:44.875Z,99.99
2017-04-25T04:44:40.824Z,99.99
2017-04-25T04:49:36.534Z,99.99
2017-04-25T04:54:32.300Z,99.99
2017-04-25T04:59:28.028Z,99.99
2017-04-25T05:04:25.049Z,99.99
2017-04-25T05:09:20.607Z,99.99
2017-04-25T05:14:20.033Z,99.83
2017-04-25T05:24:18.147Z,98.79
2017-04-25T05:29:18.431Z,97.64
2017-04-25T05:39:18.929Z,96.12
2017-04-25T05:44:18.625Z,92.32
2017-04-25T05:59:17.164Z,90.80
2017-04-25T06:04:14.000Z,89.57
2017-04-25T06:09:15.329Z,89.47
2017-04-25T06:14:09.874Z,90.19
2017-04-25T06:19:05.895Z,88.85
2017-04-25T06:24:03.000Z,88.00
2017-04-25T06:29:00.926Z,89.04
2017-04-25T06:34:00.321Z,88.47
2017-04-25T06:38:56.936Z,88.57
2017-04-25T06:43:51.920Z,87.71
2017-04-25T06:48:48.270Z,87.24
2017-04-25T06:53:43.893Z,86.86
2017-04-25T06:58:40.805Z,86.24
2017-04-25T07:03:39.773Z,85.91
2017-04-25T07:08:35.037Z,84.95
2017-04-25T07:13:34.371Z,83.06
2017-04-25T07:18:30.602Z,82.49
2017-04-25T07:23:28.629Z,81.20
2017-04-25T07:28:24.319Z,79.54
2017-04-25T07:33:21.026Z,79.49
2017-04-25T07:38:17.855Z,75.11
2017-04-25T07:43:13.254Z,70.83
2017-04-25T07:48:09.893Z,69.60
2017-04-25T07:53:04.962Z,72.22
2017-04-25T07:58:00.307Z,71.18
2017-04-25T08:02:57.631Z,67.63
2017-04-25T08:07:55.932Z,62.37
2017-04-25T08:12:52.787Z,60.46
2017-04-25T08:17:47.824Z,62.53
2017-04-25T08:22:44.051Z,61.77
2017-04-25T08:27:39.284Z,63.57
2017-04-25T08:32:35.324Z,65.35
2017-04-25T08:37:31.574Z,66.02
2017-04-25T08:42:28.407Z,64.81
2017-04-25T08:47:23.519Z,64.90
2017-04-25T08:52:21.024Z,64.97
2017-04-25T08:57:15.746Z,66.02
2017-04-25T09:02:11.522Z,65.73
2017-04-25T09:07:10.992Z,65.54
2017-04-25T09:12:05.814Z,65.83
2017-04-25T09:17:01.722Z,66.39
2017-04-25T09:21:57.465Z,65.29
2017-04-25T09:26:53.732Z,63.67
2017-04-25T09:31:51.321Z,62.27
2017-04-25T09:36:47.586Z,62.37
2017-04-25T09:41:43.396Z,63.23
2017-04-25T09:46:38.679Z,63.76
2017-04-25T09:51:34.779Z,63.76
2017-04-25T09:56:30.025Z,63.70
2017-04-25T10:01:25.731Z,63.67
2017-04-25T10:06:26.538Z,61.07
2017-04-25T10:11:21.171Z,59.80
2017-04-25T10:16:15.995Z,62.72
2017-04-25T10:21:11.648Z,64.53
2017-04-25T10:26:07.006Z,63.76
2017-04-25T10:31:04.227Z,68.30
2017-04-25T10:35:59.221Z,73.53
2017-04-25T10:40:56.027Z,75.34
2017-04-25T10:45:52.426Z,75.05
2017-04-25T10:50:50.368Z,72.33
2017-04-25T10:55:48.835Z,67.74
2017-04-25T11:00:46.380Z,65.29
2017-04-25T11:05:44.188Z,62.81
2017-04-25T11:10:43.580Z,60.94
2017-04-25T11:15:36.749Z,61.57
2017-04-25T11:20:28.926Z,68.37
2017-04-25T11:25:21.906Z,80.91
2017-04-25T11:30:16.648Z,87.10
2017-04-25T11:35:11.423Z,90.57
2017-04-25T11:40:06.671Z,92.56
2017-04-25T11:45:04.484Z,90.00
2017-04-25T11:50:05.710Z,87.13
2017-04-25T11:55:04.004Z,83.80
2017-04-25T12:00:01.347Z,81.07
2017-04-25T12:04:59.764Z,80.79
2017-04-25T12:09:51.165Z,81.13
2017-04-25T12:14:50.397Z,80.79
2017-04-25T12:19:50.075Z,78.78
2017-04-25T12:24:45.979Z,74.44
2017-04-25T12:29:43.491Z,74.16
2017-04-25T12:34:41.056Z,71.30
2017-04-25T12:39:36.840Z,70.63
2017-04-25T12:44:29.924Z,71.17
2017-04-25T12:49:25.009Z,71.93
2017-04-25T12:54:23.879Z,65.86
2017-04-25T12:59:20.911Z,60.94
2017-04-25T13:04:18.457Z,57.28
2017-04-25T13:09:16.597Z,54.50
2017-04-25T13:14:12.047Z,56.38
2017-04-25T13:19:04.680Z,59.09
2017-04-25T13:23:59.049Z,57.16
2017-04-25T13:28:53.745Z,58.28
2017-04-25T13:33:48.706Z,60.37
2017-04-25T13:38:45.457Z,60.30
2017-04-25T13:43:41.956Z,60.33
2017-04-25T13:48:36.889Z,64.56
2017-04-25T13:53:33.332Z,66.56
2017-04-25T13:58:28.251Z,66.37
2017-04-25T14:03:23.844Z,64.08
2017-04-25T14:08:21.365Z,62.21
2017-04-25T14:13:16.308Z,61.83
2017-04-25T14:18:12.834Z,61.64
2017-04-25T14:23:11.445Z,60.40
2017-04-25T14:28:06.127Z,60.69
2017-04-25T14:33:03.633Z,59.38
2017-04-25T14:38:02.112Z,58.62
2017-04-25T14:42:57.212Z,62.78
2017-04-25T14:47:52.081Z,63.45
2017-04-25T14:52:48.966Z,63.54
2017-04-25T14:57:43.856Z,60.30
2017-04-25T15:02:39.560Z,54.02
2017-04-25T15:07:35.385Z,52.97
2017-04-25T15:12:30.957Z,50.85
2017-04-25T15:17:26.680Z,55.04
2017-04-25T15:22:22.850Z,54.88
2017-04-25T15:27:20.543Z,60.66
2017-04-25T15:32:16.503Z,62.46
2017-04-25T15:37:12.656Z,54.08
2017-04-25T15:42:08.713Z,46.84
2017-04-25T15:47:04.465Z,49.13
2017-04-25T15:52:00.033Z,46.56
2017-04-25T15:56:55.693Z,47.71
2017-04-25T16:01:51.873Z,46.94
2017-04-25T16:06:47.429Z,47.99
2017-04-25T16:11:43.607Z,48.47
2017-04-25T16:16:38.923Z,48.94
2017-04-25T16:21:34.984Z,50.46
2017-04-25T16:26:30.772Z,50.73
2017-04-25T16:31:26.348Z,50.54
2017-04-25T16:36:23.026Z,51.58
2017-04-25T16:41:18.947Z,50.44
2017-04-25T16:46:14.512Z,50.06
2017-04-25T16:51:10.394Z,50.63
2017-04-25T16:56:08.238Z,49.11
2017-04-25T17:01:03.302Z,50.44
2017-04-25T17:05:59.808Z,51.10
2017-04-25T17:10:55.330Z,53.77
2017-04-25T17:15:51.040Z,54.35
2017-04-25T17:20:47.060Z,55.10
2017-04-25T17:25:42.276Z,55.68
2017-04-25T17:30:37.980Z,56.41
2017-04-25T17:35:33.678Z,57.26
2017-04-25T17:40:29.620Z,57.26
2017-04-25T17:45:25.141Z,58.50
2017-04-25T17:50:21.230Z,59.55
2017-04-25T17:55:16.999Z,60.69
2017-04-25T18:00:13.021Z,60.60
2017-04-25T18:05:08.780Z,59.55
2017-04-25T18:10:04.678Z,61.26
2017-04-25T18:15:00.502Z,61.55
2017-04-25T18:19:56.055Z,61.26
2017-04-25T18:24:51.461Z,62.18
2017-04-25T18:29:47.042Z,61.99
2017-04-25T18:34:42.689Z,63.32
2017-04-25T18:39:38.417Z,64.37
2017-04-25T18:44:34.186Z,64.56
2017-04-25T18:49:29.571Z,64.18
2017-04-25T18:54:25.298Z,64.37
2017-04-25T18:59:20.875Z,66.27
2017-04-25T19:04:16.789Z,67.03
2017-04-25T19:09:12.666Z,67.13
2017-04-25T19:14:08.294Z,66.65
2017-04-25T19:19:04.126Z,68.07
2017-04-25T19:23:59.953Z,67.09
2017-04-25T19:29:07.892Z,68.04
2017-04-25T19:34:03.123Z,69.37
2017-04-25T19:39:05.637Z,67.66
2017-04-25T19:44:00.717Z,68.71
2017-04-25T19:48:56.146Z,68.23
2017-04-25T19:53:51.899Z,69.66
2017-04-25T19:58:47.402Z,69.27
2017-04-25T20:03:42.999Z,68.29
2017-04-25T20:08:38.620Z,69.34
2017-04-25T20:13:34.696Z,69.62
2017-04-25T20:18:30.184Z,68.80
2017-04-25T20:23:26.445Z,68.96
2017-04-25T20:28:22.473Z,69.34
2017-04-25T20:33:19.011Z,68.86
2017-04-25T20:38:14.996Z,68.86
2017-04-25T20:43:10.982Z,70.48
2017-04-25T20:48:07.612Z,70.57
2017-04-25T20:53:04.341Z,71.71
2017-04-25T20:57:59.618Z,71.23
2017-04-25T21:02:55.250Z,73.04
2017-04-25T21:07:51.840Z,72.75
2017-04-25T21:12:47.494Z,73.96
2017-04-25T21:17:44.306Z,74.75
2017-04-25T21:22:40.167Z,75.47
2017-04-25T21:27:36.050Z,76.80
2017-04-25T21:32:31.807Z,77.18
2017-04-25T21:37:27.690Z,76.23
2017-04-25T21:42:24.402Z,77.09
2017-04-25T21:47:20.585Z,78.03
2017-04-25T21:52:16.253Z,79.27
2017-04-25T21:57:14.715Z,79.17
2017-04-25T22:02:09.700Z,80.03
2017-04-25T22:07:06.991Z,80.60
2017-04-25T22:12:02.128Z,81.88
2017-04-25T22:16:58.131Z,82.93
2017-04-25T22:21:53.803Z,83.45
2017-04-25T22:26:49.512Z,83.69
2017-04-25T22:31:45.115Z,84.26
2017-04-25T22:36:42.199Z,84.78
2017-04-25T22:41:37.375Z,83.45
2017-04-25T22:46:34.324Z,83.36
2017-04-25T22:51:29.538Z,84.36
2017-04-25T22:56:26.156Z,85.35
2017-04-25T23:01:22.570Z,84.74
2017-04-25T23:06:18.415Z,85.49
2017-04-25T23:11:13.805Z,86.16
2017-04-25T23:16:09.789Z,85.49
2017-04-25T23:21:05.451Z,86.25
2017-04-25T23:26:05.277Z,86.25
2017-04-25T23:31:00.559Z,86.97
2017-04-25T23:35:55.977Z,87.25
2017-04-25T23:40:51.491Z,86.78
2017-04-25T23:45:47.307Z,87.63
2017-04-25T23:50:42.599Z,87.73
2017-04-25T23:55:39.384Z,88.29
